Time;durP1;ratioP1;P1;durP2;ratioP2;P2;SDS_P1;SDS_P2;PMS_P1;PMS_P2;Temp;Humidity;BMP_temperature;BMP_pressure;BME280_temperature;BME280_humidity;BME280_pressure;Samples;Min_cycle;Max_cycle;Signal;HPM_P1;HPM_P2
2023/11/24 00:00:42;;;;;;;9.77;0.57;;;8.40;99.90;;;;;;5007129;28;20172;-85
2023/11/24 00:03:09;;;;;;;11.43;0.60;;;8.40;99.90;;;;;;5002333;28;20426;-83
2023/11/24 00:05:35;;;;;;;7.40;0.40;;;8.30;99.90;;;;;;5005907;28;20034;-84
2023/11/24 00:08:01;;;;;;;6.22;0.50;;;8.20;99.90;;;;;;5007503;28;20026;-82
2023/11/24 00:10:28;;;;;;;4.97;0.20;;;8.10;99.90;;;;;;4998554;28;20034;-83
2023/11/24 00:12:54;;;;;;;4.53;0.35;;;8.10;99.90;;;;;;5005432;28;20030;-88
2023/11/24 00:15:21;;;;;;;6.65;0.20;;;8.00;99.90;;;;;;5001832;28;20121;-84
2023/11/24 00:17:47;;;;;;;2.50;0.15;;;8.00;99.90;;;;;;5000630;28;20135;-83
2023/11/24 00:20:16;;;;;;;3.30;0.20;;;7.90;99.90;;;;;;5006840;28;20038;-82
2023/11/24 00:22:42;;;;;;;3.88;0.10;;;7.80;99.90;;;;;;5000044;28;20025;-82
2023/11/24 00:25:09;;;;;;;1.85;0.10;;;7.90;99.90;;;;;;4998439;28;20033;-84
2023/11/24 00:27:37;;;;;;;2.10;0.10;;;7.80;99.90;;;;;;4999338;28;20489;-85
2023/11/24 00:30:07;;;;;;;2.10;0.10;;;7.70;99.90;;;;;;5016488;28;20054;-85
2023/11/24 00:32:34;;;;;;;1.50;0.20;;;7.70;99.90;;;;;;5002675;28;20029;-82
2023/11/24 00:35:01;;;;;;;2.63;0.20;;;7.60;99.90;;;;;;5006151;28;20030;-82
2023/11/24 00:37:27;;;;;;;1.13;0.10;;;7.50;99.90;;;;;;5011570;28;20054;-81
2023/11/24 00:39:53;;;;;;;1.73;0.10;;;7.40;99.90;;;;;;5013420;28;20040;-83
2023/11/24 00:42:20;;;;;;;4.97;0.20;;;7.40;99.90;;;;;;4998392;28;20029;-83
2023/11/24 00:44:46;;;;;;;2.78;0.17;;;7.40;99.90;;;;;;4996389;28;20038;-81
2023/11/24 00:47:12;;;;;;;2.40;0.10;;;7.40;99.90;;;;;;4996413;28;20042;-88
2023/11/24 00:49:39;;;;;;;5.18;0.20;;;7.40;99.90;;;;;;5014834;28;20053;-82
2023/11/24 00:52:05;;;;;;;5.93;0.20;;;7.40;99.90;;;;;;5007194;28;20035;-81
2023/11/24 00:54:31;;;;;;;4.78;0.20;;;7.40;99.90;;;;;;5005777;28;20430;-85
2023/11/24 00:56:57;;;;;;;9.95;0.30;;;7.40;99.90;;;;;;5005691;28;20035;-81
2023/11/24 00:59:22;;;;;;;4.25;0.20;;;7.50;99.90;;;;;;5007306;28;20073;-85
2023/11/24 01:01:48;;;;;;;5.18;0.30;;;7.60;99.90;;;;;;4999447;28;20032;-82
2023/11/24 01:04:14;;;;;;;8.10;0.40;;;7.50;99.90;;;;;;5005561;28;20026;-85
2023/11/24 01:06:40;;;;;;;4.40;0.32;;;7.60;99.90;;;;;;5000116;28;20045;-85
2023/11/24 01:09:06;;;;;;;10.07;0.60;;;7.50;99.90;;;;;;4997460;28;20026;-84
2023/11/24 01:11:33;;;;;;;7.82;0.60;;;7.60;99.90;;;;;;5006899;28;20075;-82
2023/11/24 01:13:59;;;;;;;9.70;0.32;;;7.60;99.90;;;;;;5005958;28;20034;-82
2023/11/24 01:16:24;;;;;;;4.57;0.35;;;7.50;99.90;;;;;;5004461;28;20122;-83
2023/11/24 01:18:51;;;;;;;7.65;0.65;;;7.60;99.90;;;;;;4988450;28;20072;-84
2023/11/24 01:21:17;;;;;;;7.93;0.45;;;7.50;99.90;;;;;;5004597;28;20058;-85
2023/11/24 01:23:43;;;;;;;9.90;0.75;;;7.40;99.90;;;;;;5004548;28;20035;-82
2023/11/24 01:26:11;;;;;;;8.65;0.40;;;7.50;99.90;;;;;;5017225;28;20021;-87
2023/11/24 01:28:38;;;;;;;6.43;0.30;;;7.40;99.90;;;;;;4996921;28;20062;-82
2023/11/24 01:31:05;;;;;;;7.10;0.40;;;7.50;99.90;;;;;;5000092;28;20382;-85
2023/11/24 01:33:31;;;;;;;5.75;0.40;;;7.50;99.90;;;;;;4999719;28;20046;-83
2023/11/24 01:35:58;;;;;;;5.32;0.43;;;7.40;99.90;;;;;;4996272;28;20026;-80
2023/11/24 01:38:23;;;;;;;7.45;0.63;;;7.40;99.90;;;;;;4990356;28;20040;-85
2023/11/24 01:40:50;;;;;;;7.32;0.50;;;7.40;99.90;;;;;;4988664;28;20042;-80
2023/11/24 01:43:16;;;;;;;9.38;0.60;;;7.40;99.90;;;;;;4997256;28;20034;-84
2023/11/24 01:45:42;;;;;;;10.35;0.95;;;7.50;99.90;;;;;;4998067;28;20037;-82
2023/11/24 01:48:09;;;;;;;7.72;0.60;;;7.40;99.90;;;;;;5005463;28;20410;-81
2023/11/24 01:50:36;;;;;;;9.00;0.32;;;7.40;99.90;;;;;;5009506;28;20025;-85
2023/11/24 01:53:02;;;;;;;10.02;0.35;;;7.40;99.90;;;;;;4995746;28;20026;-86
2023/11/24 01:55:28;;;;;;;8.02;0.60;;;7.30;99.90;;;;;;5006367;28;20034;-85
2023/11/24 01:57:55;;;;;;;8.38;0.40;;;7.30;99.90;;;;;;5004809;28;20153;-80
2023/11/24 02:00:21;;;;;;;7.25;0.30;;;7.30;99.90;;;;;;5016524;28;20533;-83
2023/11/24 02:02:46;;;;;;;8.70;0.75;;;7.30;99.90;;;;;;5005411;28;20030;-86
2023/11/24 02:05:12;;;;;;;7.35;0.43;;;7.20;99.90;;;;;;4987924;28;20053;-84
2023/11/24 02:07:39;;;;;;;6.28;0.30;;;7.20;99.90;;;;;;5014194;28;20494;-82
2023/11/24 02:10:06;;;;;;;6.45;0.40;;;7.20;99.90;;;;;;5012559;28;20037;-83
2023/11/24 02:12:32;;;;;;;7.43;0.52;;;7.20;99.90;;;;;;4983918;28;20042;-81
2023/11/24 02:14:57;;;;;;;11.52;0.52;;;7.20;99.90;;;;;;5003652;28;20109;-87
2023/11/24 02:17:23;;;;;;;9.20;0.70;;;7.30;99.90;;;;;;5004323;28;20486;-85
2023/11/24 02:19:51;;;;;;;12.35;0.57;;;7.30;99.90;;;;;;4998144;28;20085;-82
2023/11/24 02:22:16;;;;;;;9.60;0.60;;;7.30;99.90;;;;;;4985790;28;20026;-82
2023/11/24 02:24:42;;;;;;;12.30;1.38;;;7.30;99.90;;;;;;4994734;28;20038;-85
2023/11/24 02:27:08;;;;;;;9.93;1.52;;;7.30;99.90;;;;;;4998318;28;20026;-80
2023/11/24 02:29:33;;;;;;;18.35;0.70;;;7.30;99.90;;;;;;4994816;28;20021;-84
2023/11/24 02:31:59;;;;;;;8.45;0.57;;;7.30;99.90;;;;;;4988847;28;20125;-85
2023/11/24 02:34:24;;;;;;;11.40;0.40;;;7.30;99.90;;;;;;5003485;28;20046;-88
2023/11/24 02:36:51;;;;;;;11.05;0.75;;;7.40;99.90;;;;;;5005741;28;20022;-85
2023/11/24 02:39:16;;;;;;;11.50;0.85;;;7.30;99.90;;;;;;5001387;28;20541;-84
2023/11/24 02:41:42;;;;;;;15.45;0.70;;;7.40;99.90;;;;;;4994116;28;20514;-82
2023/11/24 02:44:08;;;;;;;10.52;0.85;;;7.30;99.90;;;;;;5008838;28;20136;-83
2023/11/24 02:46:33;;;;;;;7.05;0.52;;;7.40;99.90;;;;;;5000349;28;20109;-88
2023/11/24 02:49:00;;;;;;;10.82;0.80;;;7.40;99.90;;;;;;4991615;28;20037;-84
2023/11/24 02:51:27;;;;;;;8.02;1.00;;;7.30;99.90;;;;;;5008011;28;20053;-81
2023/11/24 02:53:52;;;;;;;9.57;0.45;;;7.30;99.90;;;;;;5010068;28;20222;-84
2023/11/24 02:56:18;;;;;;;11.27;0.93;;;7.30;99.90;;;;;;4988396;28;20022;-83
2023/11/24 02:58:44;;;;;;;9.77;0.40;;;7.30;99.90;;;;;;5002158;28;20458;-82
2023/11/24 03:01:10;;;;;;;13.55;0.68;;;7.30;99.90;;;;;;5002862;28;20046;-84
2023/11/24 03:03:37;;;;;;;6.90;0.50;;;7.40;99.90;;;;;;4999441;28;20042;-82
2023/11/24 03:06:06;;;;;;;10.52;0.50;;;7.30;99.90;;;;;;5007609;28;20080;-83
2023/11/24 03:08:32;;;;;;;7.88;0.50;;;7.30;99.90;;;;;;4989111;28;20177;-81
2023/11/24 03:10:58;;;;;;;13.48;0.75;;;7.40;99.90;;;;;;5015863;28;20390;-86
2023/11/24 03:13:24;;;;;;;13.52;0.70;;;7.30;99.90;;;;;;5009075;28;20021;-85
2023/11/24 03:15:52;;;;;;;9.23;0.77;;;7.30;99.90;;;;;;5007965;28;20479;-84
2023/11/24 03:18:18;;;;;;;9.63;0.40;;;7.30;99.90;;;;;;5000801;28;20101;-81
2023/11/24 03:20:44;;;;;;;8.98;0.75;;;7.20;99.90;;;;;;5000356;28;20137;-82
2023/11/24 03:23:10;;;;;;;5.28;0.38;;;7.20;99.90;;;;;;5000956;28;20435;-82
2023/11/24 03:25:35;;;;;;;5.22;0.40;;;7.10;99.90;;;;;;4998426;28;20289;-82
2023/11/24 03:28:01;;;;;;;7.35;0.55;;;7.10;99.90;;;;;;5008771;28;20054;-81
2023/11/24 03:30:27;;;;;;;8.35;0.40;;;7.10;99.90;;;;;;5008730;28;20029;-84
2023/11/24 03:32:53;;;;;;;10.05;0.50;;;7.00;99.90;;;;;;4991018;28;20437;-81
2023/11/24 03:35:19;;;;;;;6.30;0.63;;;7.00;99.90;;;;;;4999690;28;20026;-81
2023/11/24 03:37:44;;;;;;;6.18;0.63;;;7.10;99.90;;;;;;5018162;28;20487;-83
2023/11/24 03:40:10;;;;;;;6.97;0.45;;;7.00;99.90;;;;;;5001870;28;20430;-82
2023/11/24 03:42:37;;;;;;;9.73;0.40;;;7.00;99.90;;;;;;5017709;28;20474;-82
2023/11/24 03:45:04;;;;;;;11.40;0.55;;;6.90;99.90;;;;;;5008251;28;20079;-80
2023/11/24 03:47:30;;;;;;;10.65;0.40;;;6.90;99.90;;;;;;5000571;28;20050;-81
2023/11/24 03:49:59;;;;;;;4.22;0.45;;;6.90;99.90;;;;;;5000606;28;20019;-81
2023/11/24 03:52:25;;;;;;;8.15;0.73;;;6.90;99.90;;;;;;4991156;28;20041;-81
2023/11/24 03:54:51;;;;;;;9.68;0.70;;;6.90;99.90;;;;;;4984693;28;20025;-81
2023/11/24 03:57:18;;;;;;;5.50;0.30;;;6.80;99.90;;;;;;5005164;28;20153;-81
2023/11/24 03:59:43;;;;;;;8.25;0.30;;;6.90;99.90;;;;;;5007168;28;20041;-81
2023/11/24 04:02:09;;;;;;;6.65;0.20;;;6.90;99.90;;;;;;4999794;28;20034;-81
2023/11/24 04:04:35;;;;;;;5.60;0.30;;;6.80;99.90;;;;;;5006772;28;20121;-82
2023/11/24 04:07:00;;;;;;;6.25;0.20;;;6.80;99.90;;;;;;5006095;28;20109;-82
2023/11/24 04:09:26;;;;;;;3.53;0.20;;;6.80;99.90;;;;;;5007136;28;20041;-85
2023/11/24 04:11:54;;;;;;;5.43;0.55;;;6.70;99.90;;;;;;5000130;28;20466;-81
2023/11/24 04:14:20;;;;;;;4.18;0.20;;;6.60;99.90;;;;;;5003375;28;20027;-80
2023/11/24 04:16:46;;;;;;;2.80;0.20;;;6.60;99.90;;;;;;5006992;28;21107;-84
2023/11/24 04:19:11;;;;;;;2.17;0.40;;;6.50;99.90;;;;;;5005940;28;20058;-82
2023/11/24 04:21:39;;;;;;;10.63;0.20;;;6.40;99.90;;;;;;5000303;28;20490;-81
2023/11/24 04:24:06;;;;;;;4.50;0.20;;;6.30;99.90;;;;;;5001471;28;20068;-80
2023/11/24 04:26:32;;;;;;;5.05;0.10;;;6.40;99.90;;;;;;5004907;28;20030;-81
2023/11/24 04:28:58;;;;;;;4.50;0.10;;;6.30;99.90;;;;;;4998752;28;20022;-80
2023/11/24 04:31:24;;;;;;;3.88;0.20;;;6.30;99.90;;;;;;4997690;28;20022;-82
2023/11/24 04:33:49;;;;;;;9.07;0.30;;;6.30;99.90;;;;;;4990788;28;20034;-81
2023/11/24 04:36:17;;;;;;;6.03;0.30;;;6.40;99.90;;;;;;4995414;28;20029;-81
2023/11/24 04:38:45;;;;;;;7.47;0.75;;;6.40;99.90;;;;;;4994866;28;20038;-81
2023/11/24 04:41:11;;;;;;;4.07;0.20;;;6.50;99.90;;;;;;4989113;28;20045;-83
2023/11/24 04:43:38;;;;;;;6.07;0.30;;;6.50;99.90;;;;;;5005151;28;20070;-85
2023/11/24 04:46:06;;;;;;;7.60;0.30;;;6.50;99.90;;;;;;5001853;28;20041;-81
2023/11/24 04:48:34;;;;;;;3.00;0.20;;;6.40;99.90;;;;;;4998668;28;20538;-86
2023/11/24 04:51:00;;;;;;;5.57;0.20;;;6.30;99.90;;;;;;5008550;28;20857;-83
2023/11/24 04:53:25;;;;;;;3.28;0.10;;;6.30;99.90;;;;;;5006635;28;20033;-79
2023/11/24 04:55:51;;;;;;;4.18;0.20;;;6.20;99.90;;;;;;5006366;28;20034;-82
2023/11/24 04:58:17;;;;;;;6.45;0.47;;;6.20;99.90;;;;;;5002250;28;20038;-82
2023/11/24 05:00:42;;;;;;;5.22;0.30;;;6.30;99.90;;;;;;4998217;28;20069;-82
2023/11/24 05:03:08;;;;;;;3.53;0.20;;;6.40;99.90;;;;;;5005934;28;20037;-81
2023/11/24 05:05:33;;;;;;;3.75;0.20;;;6.40;99.90;;;;;;5015756;28;20030;-84
2023/11/24 05:07:59;;;;;;;3.28;0.20;;;6.40;99.90;;;;;;5016570;28;20071;-82
2023/11/24 05:10:25;;;;;;;3.47;0.20;;;6.40;99.90;;;;;;4998098;28;20018;-81
2023/11/24 05:12:51;;;;;;;7.38;0.30;;;6.40;99.90;;;;;;5005426;28;20486;-84
2023/11/24 05:15:16;;;;;;;5.03;0.30;;;6.40;99.90;;;;;;4988131;28;20029;-83
2023/11/24 05:17:42;;;;;;;4.63;0.20;;;6.40;99.90;;;;;;5003274;28;20463;-82
2023/11/24 05:20:12;;;;;;;4.97;0.20;;;6.40;99.90;;;;;;4995470;28;20046;-82
2023/11/24 05:22:40;;;;;;;3.13;0.20;;;6.30;99.90;;;;;;4989717;28;20030;-84
2023/11/24 05:25:07;;;;;;;5.13;0.20;;;6.40;99.90;;;;;;4997086;28;20030;-83
2023/11/24 05:27:33;;;;;;;3.75;0.20;;;6.30;99.90;;;;;;5005917;28;20026;-83
2023/11/24 05:29:58;;;;;;;6.45;0.20;;;6.30;99.90;;;;;;4997343;28;20195;-83
2023/11/24 05:32:24;;;;;;;5.68;0.30;;;6.40;99.90;;;;;;5000373;28;20022;-85
2023/11/24 05:34:53;;;;;;;7.38;0.30;;;6.50;99.90;;;;;;5005052;28;20485;-81
2023/11/24 05:37:22;;;;;;;3.83;0.68;;;6.50;99.90;;;;;;4989488;28;20034;-81
2023/11/24 05:39:48;;;;;;;4.05;0.30;;;6.60;99.90;;;;;;5006982;28;20529;-82
2023/11/24 05:42:15;;;;;;;7.82;0.25;;;6.50;99.90;;;;;;5006029;28;20117;-82
2023/11/24 05:44:41;;;;;;;9.48;0.35;;;6.50;99.90;;;;;;4996783;28;20042;-86
2023/11/24 05:47:07;;;;;;;7.53;0.68;;;6.60;99.90;;;;;;5013820;28;20030;-81
2023/11/24 05:49:33;;;;;;;7.93;0.43;;;6.60;99.90;;;;;;5003157;28;20306;-83
2023/11/24 05:51:58;;;;;;;5.40;0.50;;;6.70;99.90;;;;;;4996894;28;20023;-84
2023/11/24 05:54:24;;;;;;;7.35;0.30;;;6.60;99.90;;;;;;5003822;28;20022;-83
2023/11/24 05:56:50;;;;;;;6.60;0.20;;;6.50;99.90;;;;;;5002729;28;20030;-81
2023/11/24 05:59:17;;;;;;;5.07;0.30;;;6.50;99.90;;;;;;5004790;28;20498;-85
2023/11/24 06:01:43;;;;;;;4.90;0.22;;;6.40;99.90;;;;;;4999219;28;20101;-83
2023/11/24 06:04:09;;;;;;;10.45;0.85;;;6.30;99.90;;;;;;4990061;28;20023;-82
2023/11/24 06:06:35;;;;;;;4.20;0.30;;;6.30;99.90;;;;;;5002312;28;20382;-84
2023/11/24 06:09:02;;;;;;;3.80;0.35;;;6.30;99.90;;;;;;5006438;28;20057;-86
2023/11/24 06:11:28;;;;;;;7.57;0.30;;;6.20;99.90;;;;;;4988461;28;20046;-83
2023/11/24 06:13:53;;;;;;;7.05;0.40;;;6.20;99.90;;;;;;4997361;28;20019;-81
2023/11/24 06:16:20;;;;;;;6.78;0.30;;;6.10;99.90;;;;;;4989115;28;20428;-85
2023/11/24 06:18:46;;;;;;;5.80;0.28;;;6.10;99.90;;;;;;5007478;28;20076;-83
2023/11/24 06:21:12;;;;;;;7.75;0.30;;;6.10;99.90;;;;;;5008642;28;20041;-88
2023/11/24 06:23:38;;;;;;;3.35;0.20;;;6.10;99.90;;;;;;5010975;28;20091;-86
2023/11/24 06:26:07;;;;;;;5.28;0.20;;;6.00;99.90;;;;;;4993090;28;20463;-87
2023/11/24 06:28:33;;;;;;;3.33;0.10;;;6.00;99.90;;;;;;5002374;28;20118;-86
2023/11/24 06:31:00;;;;;;;3.65;0.13;;;6.00;99.90;;;;;;5019099;28;20462;-84
2023/11/24 06:33:26;;;;;;;6.07;0.30;;;6.00;99.90;;;;;;5022338;28;20075;-82
2023/11/24 06:35:53;;;;;;;4.60;0.25;;;6.00;99.90;;;;;;4989690;28;20030;-82
2023/11/24 06:38:18;;;;;;;6.10;0.15;;;6.00;99.90;;;;;;5009291;28;20072;-83
2023/11/24 06:40:44;;;;;;;7.25;0.30;;;6.10;99.90;;;;;;5003684;28;20046;-82
2023/11/24 06:43:09;;;;;;;5.68;0.30;;;6.10;99.90;;;;;;5009054;28;20203;-83
2023/11/24 06:45:35;;;;;;;7.13;0.38;;;6.00;99.90;;;;;;5006010;28;20045;-84
2023/11/24 06:48:01;;;;;;;5.40;0.50;;;6.00;99.90;;;;;;4992694;28;20715;-83
2023/11/24 06:50:26;;;;;;;4.53;0.40;;;6.00;99.90;;;;;;5001532;28;20031;-84
2023/11/24 06:52:52;;;;;;;6.40;0.75;;;6.00;99.90;;;;;;4999964;28;20097;-86
2023/11/24 06:55:18;;;;;;;4.55;0.30;;;5.90;99.90;;;;;;5018305;28;20398;-84
2023/11/24 06:57:44;;;;;;;4.72;0.40;;;5.90;99.90;;;;;;5003562;28;20021;-84
2023/11/24 07:00:16;;;;;;;4.15;0.20;;;5.90;99.90;;;;;;5021813;28;20120;-91
2023/11/24 07:02:41;;;;;;;4.57;0.20;;;5.90;99.90;;;;;;4998352;28;20099;-89
2023/11/24 07:05:09;;;;;;;6.05;0.63;;;5.90;99.90;;;;;;4988816;28;20029;-88
2023/11/24 07:07:34;;;;;;;5.03;0.20;;;6.00;99.90;;;;;;5004096;28;20025;-85
2023/11/24 07:10:00;;;;;;;9.00;0.30;;;5.90;99.90;;;;;;5002627;28;20088;-88
2023/11/24 07:12:25;;;;;;;5.95;0.30;;;5.90;99.90;;;;;;5002752;28;20033;-88
2023/11/24 07:14:51;;;;;;;5.60;0.30;;;5.90;99.90;;;;;;5010256;28;20478;-88
2023/11/24 07:17:17;;;;;;;4.50;0.20;;;5.90;99.90;;;;;;4999939;28;20033;-89
2023/11/24 07:19:42;;;;;;;3.58;0.30;;;5.80;99.90;;;;;;5000690;28;20038;-86
2023/11/24 07:22:08;;;;;;;3.50;0.28;;;5.80;99.90;;;;;;5009174;28;20022;-89
2023/11/24 07:24:38;;;;;;;4.40;0.47;;;5.70;99.90;;;;;;5000705;28;20056;-84
2023/11/24 07:27:05;;;;;;;3.90;0.30;;;5.80;99.90;;;;;;4991610;28;20030;-88
2023/11/24 07:29:33;;;;;;;4.90;0.22;;;5.90;99.90;;;;;;4993311;28;20047;-87
2023/11/24 07:32:01;;;;;;;4.50;0.20;;;6.00;99.90;;;;;;5009585;28;20378;-89
2023/11/24 07:34:26;;;;;;;6.45;0.20;;;6.00;99.90;;;;;;4990065;28;20038;-88
2023/11/24 07:36:53;;;;;;;4.95;0.20;;;6.00;99.90;;;;;;4991887;28;20052;-89
2023/11/24 07:39:20;;;;;;;6.38;0.20;;;5.90;99.90;;;;;;4992171;28;20050;-91
2023/11/24 07:41:46;;;;;;;3.65;0.28;;;5.80;99.90;;;;;;5004976;28;20061;-84
2023/11/24 07:44:12;;;;;;;5.40;0.30;;;5.80;99.90;;;;;;5002030;28;20129;-83
2023/11/24 07:46:38;;;;;;;3.58;0.20;;;5.70;99.90;;;;;;5002162;28;20558;-91
2023/11/24 07:49:04;;;;;;;3.15;0.10;;;5.50;99.90;;;;;;5000918;28;20509;-83
2023/11/24 07:51:29;;;;;;;3.72;0.50;;;5.40;99.90;;;;;;5005101;28;20537;-90
2023/11/24 07:53:55;;;;;;;1.08;0.10;;;5.40;99.90;;;;;;4991938;28;20040;-89
2023/11/24 07:56:21;;;;;;;4.88;0.20;;;5.40;99.90;;;;;;4998579;28;20018;-88
2023/11/24 07:58:46;;;;;;;4.45;0.20;;;5.40;99.90;;;;;;5002487;28;20467;-87
2023/11/24 08:01:13;;;;;;;4.25;0.25;;;5.40;99.90;;;;;;5007187;28;20125;-89
2023/11/24 08:03:39;;;;;;;2.30;0.10;;;5.40;99.90;;;;;;4987453;28;20033;-85
2023/11/24 08:06:08;;;;;;;1.92;0.20;;;5.30;99.90;;;;;;5007891;28;20057;-88
2023/11/24 08:08:34;;;;;;;7.15;0.20;;;5.30;99.90;;;;;;5015096;28;20022;-88
2023/11/24 08:10:59;;;;;;;6.78;0.20;;;5.30;99.90;;;;;;5007712;28;20037;-83
2023/11/24 08:13:25;;;;;;;2.80;0.20;;;5.30;99.90;;;;;;4985500;28;20073;-85
2023/11/24 08:15:52;;;;;;;6.43;0.30;;;5.30;99.90;;;;;;5007376;28;20049;-88
2023/11/24 08:18:17;;;;;;;5.25;0.20;;;5.40;99.90;;;;;;5005770;28;20030;-87
2023/11/24 08:20:43;;;;;;;5.18;0.20;;;5.40;99.90;;;;;;5006592;28;20044;-86
2023/11/24 08:23:10;;;;;;;6.13;0.30;;;5.40;99.90;;;;;;4991368;28;20467;-85
2023/11/24 08:25:36;;;;;;;6.68;0.73;;;5.50;99.90;;;;;;5007207;28;20045;-85
2023/11/24 08:28:04;;;;;;;6.22;0.30;;;5.60;99.90;;;;;;5000665;28;20029;-85
2023/11/24 08:30:32;;;;;;;8.75;0.85;;;5.60;99.90;;;;;;5004385;28;20099;-90
2023/11/24 08:32:57;;;;;;;4.15;0.20;;;5.60;99.90;;;;;;5001028;28;20120;-85
2023/11/24 08:35:25;;;;;;;3.45;0.10;;;5.70;99.90;;;;;;5006816;28;20070;-84
2023/11/24 08:37:51;;;;;;;7.10;0.35;;;5.70;99.90;;;;;;4996949;28;20037;-82
2023/11/24 08:40:17;;;;;;;5.63;0.20;;;5.70;99.90;;;;;;5005904;28;20188;-82
2023/11/24 08:42:44;;;;;;;6.28;0.30;;;5.70;99.90;;;;;;5007084;28;20117;-86
2023/11/24 08:45:13;;;;;;;7.82;0.30;;;5.80;99.90;;;;;;5000627;28;20089;-84
2023/11/24 08:47:41;;;;;;;9.03;0.30;;;5.90;99.90;;;;;;4999652;28;20053;-82
2023/11/24 08:50:13;;;;;;;5.07;0.20;;;6.00;99.90;;;;;;5005984;28;20285;-83
2023/11/24 08:52:39;;;;;;;3.47;0.30;;;5.90;99.90;;;;;;5005675;28;20105;-82
2023/11/24 08:55:06;;;;;;;6.43;0.60;;;5.90;99.90;;;;;;4998488;28;20041;-86
2023/11/24 08:57:32;;;;;;;4.20;0.30;;;5.90;99.90;;;;;;5001446;28;20562;-88
2023/11/24 08:59:58;;;;;;;3.80;0.20;;;5.90;99.90;;;;;;5003437;28;20034;-83
2023/11/24 09:02:26;;;;;;;5.88;0.17;;;5.80;99.90;;;;;;5000669;28;20026;-86
2023/11/24 09:04:52;;;;;;;3.53;0.20;;;5.70;99.90;;;;;;5003765;28;20065;-85
2023/11/24 09:07:18;;;;;;;8.27;0.22;;;5.80;99.90;;;;;;5001124;28;20506;-87
2023/11/24 09:09:44;;;;;;;5.88;0.20;;;5.80;99.90;;;;;;5015994;28;20034;-84
2023/11/24 09:12:10;;;;;;;3.47;0.50;;;5.80;99.90;;;;;;4986623;28;20018;-85
2023/11/24 09:14:38;;;;;;;2.17;0.20;;;5.70;99.90;;;;;;5005514;28;20045;-83
2023/11/24 09:17:04;;;;;;;2.33;0.40;;;5.70;99.90;;;;;;5001610;28;20029;-87
2023/11/24 09:19:31;;;;;;;3.80;0.35;;;5.70;99.90;;;;;;4987119;28;20033;-83
2023/11/24 09:22:00;;;;;;;3.90;0.20;;;5.70;99.90;;;;;;5002116;28;20567;-83
2023/11/24 09:24:26;;;;;;;4.90;0.20;;;5.70;99.90;;;;;;5004275;28;20022;-86
2023/11/24 09:26:53;;;;;;;2.70;0.10;;;5.80;99.90;;;;;;5003573;28;20033;-88
2023/11/24 09:29:19;;;;;;;3.20;0.20;;;5.80;99.90;;;;;;5003205;28;20029;-88
2023/11/24 09:31:45;;;;;;;1.88;0.20;;;5.80;99.90;;;;;;5016705;28;20124;-88
2023/11/24 09:34:11;;;;;;;5.05;0.60;;;5.90;99.90;;;;;;5004272;28;20033;-89
2023/11/24 09:36:41;;;;;;;4.88;0.10;;;5.70;99.90;;;;;;5003693;28;20030;-89
2023/11/24 09:39:08;;;;;;;2.58;0.10;;;5.70;99.90;;;;;;4987141;28;20080;-85
2023/11/24 09:41:38;;;;;;;1.98;0.57;;;5.70;99.90;;;;;;4983473;28;20069;-86
2023/11/24 09:44:10;;;;;;;3.35;0.10;;;5.60;99.90;;;;;;4999224;28;20042;-86
2023/11/24 09:46:41;;;;;;;3.60;0.20;;;5.70;99.90;;;;;;4978670;28;20053;-84
2023/11/24 09:49:10;;;;;;;2.38;0.17;;;5.80;99.90;;;;;;4998968;28;20026;-84
2023/11/24 09:51:39;;;;;;;3.20;0.10;;;5.80;99.90;;;;;;5003025;28;20041;-87
2023/11/24 09:54:06;;;;;;;2.00;0.10;;;5.80;99.90;;;;;;5002733;28;20049;-87
2023/11/24 09:56:35;;;;;;;4.28;0.20;;;5.90;99.90;;;;;;5004644;28;20052;-93
2023/11/24 09:59:08;;;;;;;5.03;0.10;;;5.80;99.90;;;;;;5002153;28;20038;-85
2023/11/24 10:01:37;;;;;;;3.35;0.20;;;5.70;99.90;;;;;;5001947;28;20657;-88
2023/11/24 10:04:05;;;;;;;2.33;0.10;;;5.60;99.90;;;;;;5002710;28;20053;-88
2023/11/24 10:06:39;;;;;;;2.17;0.30;;;5.60;99.90;;;;;;5003159;28;20096;-85
2023/11/24 10:09:06;;;;;;;5.15;0.20;;;5.50;99.90;;;;;;5013442;28;20030;-89
2023/11/24 10:11:33;;;;;;;6.40;0.10;;;5.40;99.90;;;;;;4998580;28;20166;-87
2023/11/24 10:14:04;;;;;;;3.45;0.10;;;5.40;99.90;;;;;;4986453;28;20034;-87
2023/11/24 10:16:30;;;;;;;2.90;0.10;;;5.40;99.90;;;;;;5000359;28;20022;-92
2023/11/24 10:19:00;;;;;;;2.50;0.10;;;5.70;99.90;;;;;;4981055;28;20562;-89
2023/11/24 10:21:27;;;;;;;0.93;0.22;;;6.10;99.90;;;;;;5000420;28;20057;-86
2023/11/24 10:23:54;;;;;;;1.30;0.10;;;6.00;99.90;;;;;;5001547;28;20062;-83
2023/11/24 10:26:21;;;;;;;4.93;0.28;;;5.90;99.90;;;;;;4999242;28;20033;-90
2023/11/24 10:28:46;;;;;;;2.42;0.10;;;5.80;99.90;;;;;;5002734;28;20034;-86
2023/11/24 10:31:13;;;;;;;2.30;0.10;;;5.70;99.90;;;;;;5003459;28;20153;-87
2023/11/24 10:33:40;;;;;;;4.82;0.20;;;5.80;99.90;;;;;;5017782;28;20057;-85
2023/11/24 10:36:06;;;;;;;4.25;1.27;;;5.80;99.90;;;;;;5001587;28;20030;-85
2023/11/24 10:38:33;;;;;;;3.55;0.63;;;5.80;99.90;;;;;;5000622;28;20034;-87
2023/11/24 10:41:04;;;;;;;3.03;0.20;;;5.80;99.90;;;;;;4997150;28;20076;-86
2023/11/24 10:43:34;;;;;;;8.93;0.20;;;5.80;99.90;;;;;;5011353;28;20062;-87
2023/11/24 10:46:04;;;;;;;4.60;0.88;;;5.70;99.90;;;;;;5003628;28;20097;-83
2023/11/24 10:48:57;;;;;;;5.80;0.30;;;5.80;99.90;;;;;;5000576;28;20030;-85
2023/11/24 10:52:01;;;;;;;4.13;0.30;;;6.00;99.90;;;;;;5001055;28;20068;-88
2023/11/24 10:54:39;;;;;;;2.92;0.20;;;6.10;99.90;;;;;;5001185;28;20042;-84
2023/11/24 10:57:06;;;;;;;5.25;0.20;;;6.00;99.90;;;;;;5018085;28;20060;-87
2023/11/24 10:59:35;;;;;;;3.75;0.40;;;5.90;99.90;;;;;;4999509;28;20030;-89
2023/11/24 11:02:06;;;;;;;2.97;0.20;;;6.00;99.90;;;;;;5007033;28;20033;-83
2023/11/24 11:04:35;;;;;;;6.00;0.45;;;6.40;99.90;;;;;;5001759;28;20446;-85
2023/11/24 11:07:26;;;;;;;7.05;0.30;;;6.50;99.90;;;;;;5017874;28;20029;-89
2023/11/24 11:09:58;;;;;;;3.60;0.20;;;6.50;99.90;;;;;;5006432;28;20084;-84
2023/11/24 11:12:39;;;;;;;7.43;0.30;;;6.20;99.90;;;;;;5002370;28;20036;-85
2023/11/24 11:15:09;;;;;;;5.65;0.50;;;5.80;99.90;;;;;;4998027;28;20034;-86
2023/11/24 11:17:37;;;;;;;8.80;0.38;;;5.70;99.90;;;;;;5006030;28;20062;-82
2023/11/24 11:20:09;;;;;;;3.78;0.25;;;5.60;99.90;;;;;;5017366;28;20030;-83
2023/11/24 11:22:36;;;;;;;6.10;0.52;;;5.60;99.90;;;;;;5016471;28;20038;-87
2023/11/24 11:25:30;;;;;;;10.75;0.40;;;5.70;99.90;;;;;;5004658;28;20033;-88
2023/11/24 11:28:15;;;;;;;6.90;0.30;;;5.80;99.90;;;;;;4988821;28;20073;-86
2023/11/24 11:30:44;;;;;;;9.55;0.40;;;5.90;99.90;;;;;;5005714;28;20038;-85
2023/11/24 11:33:12;;;;;;;5.88;0.30;;;6.00;99.90;;;;;;5001147;28;20161;-82
2023/11/24 11:35:42;;;;;;;9.73;0.73;;;6.00;99.90;;;;;;5005534;28;20038;-85
2023/11/24 11:38:13;;;;;;;7.68;0.40;;;6.30;99.90;;;;;;5004537;28;20494;-90
2023/11/24 11:40:47;;;;;;;10.50;0.60;;;6.40;99.90;;;;;;5004149;28;20046;-90
2023/11/24 11:43:15;;;;;;;9.05;0.40;;;6.50;99.90;;;;;;4987402;28;20046;-84
2023/11/24 11:45:52;;;;;;;6.20;0.30;;;6.60;99.90;;;;;;5015718;28;20064;-85
2023/11/24 11:48:20;;;;;;;5.47;0.40;;;6.60;99.90;;;;;;5003035;28;20092;-90
2023/11/24 11:50:55;;;;;;;7.28;0.60;;;6.70;99.90;;;;;;5005816;28;20038;-85
2023/11/24 11:53:25;;;;;;;12.00;0.47;;;6.50;99.90;;;;;;4999553;28;20032;-86
2023/11/24 11:55:53;;;;;;;7.55;0.60;;;6.50;99.90;;;;;;5006524;28;20029;-87
2023/11/24 11:58:19;;;;;;;13.82;0.50;;;6.50;99.90;;;;;;5001487;28;20068;-84
2023/11/24 12:00:48;;;;;;;7.75;0.35;;;6.60;99.90;;;;;;5002331;28;20038;-88
2023/11/24 12:03:18;;;;;;;6.00;0.40;;;6.70;99.90;;;;;;5001298;28;20034;-84
2023/11/24 12:05:47;;;;;;;9.43;0.32;;;7.00;99.90;;;;;;5005284;28;20304;-87
2023/11/24 12:08:21;;;;;;;8.20;0.60;;;7.00;99.90;;;;;;5001287;28;20037;-86
2023/11/24 12:10:47;;;;;;;10.75;0.93;;;6.90;99.90;;;;;;4999831;28;20034;-84
2023/11/24 12:13:12;;;;;;;10.18;0.60;;;6.70;99.90;;;;;;5002771;28;20116;-85
2023/11/24 12:15:39;;;;;;;13.23;0.70;;;6.50;99.90;;;;;;4988978;28;20031;-89
2023/11/24 12:18:08;;;;;;;15.02;0.50;;;6.20;99.90;;;;;;5004258;28;20129;-83
2023/11/24 12:20:36;;;;;;;11.05;0.93;;;6.10;99.90;;;;;;5002706;28;20088;-87
2023/11/24 12:23:05;;;;;;;15.50;1.48;;;6.20;99.90;;;;;;4998998;28;20065;-88
2023/11/24 12:25:31;;;;;;;10.70;0.57;;;6.50;99.90;;;;;;5001954;28;20041;-87
2023/11/24 12:27:57;;;;;;;12.27;0.70;;;6.60;99.90;;;;;;5003610;28;20030;-85
2023/11/24 12:30:23;;;;;;;13.23;1.35;;;6.60;99.90;;;;;;4988567;28;20048;-91
2023/11/24 12:32:51;;;;;;;17.88;0.75;;;6.60;99.90;;;;;;5005289;28;20462;-88
2023/11/24 12:35:17;;;;;;;8.52;0.95;;;6.70;99.90;;;;;;5003078;28;20026;-90
2023/11/24 12:37:46;;;;;;;16.90;0.80;;;6.70;99.90;;;;;;5016013;28;20049;-90
2023/11/24 12:40:12;;;;;;;14.40;0.68;;;6.70;99.90;;;;;;5000247;28;20038;-86
2023/11/24 12:42:38;;;;;;;8.80;0.90;;;6.70;99.90;;;;;;5017641;28;20483;-86
2023/11/24 12:45:08;;;;;;;12.27;0.70;;;6.60;99.90;;;;;;5001453;28;20053;-83
2023/11/24 12:47:34;;;;;;;14.30;0.90;;;6.50;99.90;;;;;;5004942;28;20036;-86
2023/11/24 12:50:06;;;;;;;12.48;0.73;;;6.40;99.90;;;;;;5004725;28;20216;-84
2023/11/24 12:52:33;;;;;;;14.23;0.70;;;6.30;99.90;;;;;;5014819;28;20026;-88
2023/11/24 12:55:01;;;;;;;7.45;0.40;;;6.00;99.90;;;;;;5001616;28;20134;-88